Thomson, Illinois
Current Conditions -  °F | °C
As of 10:35 PM on Saturday 22 Nov 2014 (Local Time) from KSFY Reporting Station
Overcast Overcast  
Wind Chill: 52°   Ceiling: 2700
Heat Index: 52°   Visibility: 10mi
Dew Point: 47°   Wind: 14mph
Humidity: 85%   Direction: 170°S
Pressure: 29.77"   Gusts: NA
Location:  41.96°N, 90.1°W
Report Text: KSFY 230435Z AUTO 17012KT 10SM OVC027 11/09 A2977 RMK AO2 T01100085
Loading
Personal Weather Stations






























Interactive Weather Map New forecast layout! Learn more

10-Day Weather Forecast

Advertisements
Track Severe Weather on mobile